Time,TemperatureF,DewpointF,PressureIn,WindDirection,WindDirectionDegrees,WindSpeedMPH,WindSpeedGustMPH,Humidity,HourlyPrecipIn,Conditions,Clouds,dailyrainin,SoftwareType,DateUTC
2013-11-02 00:06:00,72.1,67.0,29.75,WSW,239,0.0,6.0,84,0.00,,,0.00,weatherlink.com 1.10,2013-11-02 04:06:00,
2013-11-02 00:21:00,72.1,67.0,29.74,SSW,211,3.0,6.0,84,0.00,,,0.00,weatherlink.com 1.10,2013-11-02 04:21:00,
2013-11-02 00:36:00,72.0,67.0,29.74,South,190,0.0,6.0,84,0.00,,,0.00,weatherlink.com 1.10,2013-11-02 04:36:00,
2013-11-02 00:51:00,71.8,67.0,29.72,SSW,194,2.0,7.0,84,0.00,,,0.00,weatherlink.com 1.10,2013-11-02 04:51:00,
2013-11-02 01:06:00,71.7,67.0,29.72,SSW,196,0.0,7.0,84,0.00,,,0.00,weatherlink.com 1.10,2013-11-02 05:06:00,
2013-11-02 01:22:00,71.6,66.0,29.72,West,269,0.0,3.0,83,0.02,,,0.02,weatherlink.com 1.10,2013-11-02 05:22:00,
2013-11-02 01:37:00,71.4,66.0,29.71,SSW,202,0.0,7.0,83,0.03,,,0.03,weatherlink.com 1.10,2013-11-02 05:37:00,
2013-11-02 01:52:00,71.3,66.0,29.71,SSW,206,2.0,4.0,83,0.04,,,0.04,weatherlink.com 1.10,2013-11-02 05:52:00,
2013-11-02 02:07:00,71.2,66.0,29.71,West,274,0.0,6.0,82,0.05,,,0.05,weatherlink.com 1.10,2013-11-02 06:07:00,
2013-11-02 02:22:00,71.3,66.0,29.70,WNW,282,0.0,7.0,82,0.04,,,0.06,weatherlink.com 1.10,2013-11-02 06:22:00,
2013-11-02 02:37:00,71.4,66.0,29.70,West,278,2.0,10.0,82,0.03,,,0.06,weatherlink.com 1.10,2013-11-02 06:37:00,
2013-11-02 02:52:00,71.5,66.0,29.70,West,262,3.0,11.0,82,0.03,,,0.07,weatherlink.com 1.10,2013-11-02 06:52:00,
2013-11-02 03:07:00,71.5,66.0,29.70,West,276,0.0,11.0,82,0.06,,,0.11,weatherlink.com 1.10,2013-11-02 07:07:00,
2013-11-02 03:22:00,70.5,65.0,29.69,WSW,254,4.0,7.0,83,0.09,,,0.15,weatherlink.com 1.10,2013-11-02 07:22:00,
2013-11-02 03:37:00,69.8,64.0,29.71,WSW,248,2.0,10.0,82,0.14,,,0.20,weatherlink.com 1.10,2013-11-02 07:37:00,
2013-11-02 03:52:00,69.2,64.0,29.72,West,269,0.0,5.0,82,0.24,,,0.31,weatherlink.com 1.10,2013-11-02 07:52:00,
2013-11-02 04:07:00,69.0,63.0,29.71,WSW,239,2.0,5.0,82,0.26,,,0.37,weatherlink.com 1.10,2013-11-02 08:07:00,
2013-11-02 04:22:00,68.2,63.0,29.70,West,269,0.0,12.0,82,0.32,,,0.47,weatherlink.com 1.10,2013-11-02 08:22:00,
2013-11-02 04:37:00,67.9,62.0,29.69,West,269,0.0,3.0,82,0.29,,,0.49,weatherlink.com 1.10,2013-11-02 08:37:00,
2013-11-02 04:52:00,67.5,62.0,29.70,SW,221,0.0,5.0,82,0.20,,,0.51,weatherlink.com 1.10,2013-11-02 08:52:00,
2013-11-02 05:07:00,67.3,62.0,29.72,West,266,0.0,7.0,82,0.21,,,0.58,weatherlink.com 1.10,2013-11-02 09:07:00,
2013-11-02 05:22:00,67.0,61.0,29.71,West,265,0.0,4.0,82,0.13,,,0.61,weatherlink.com 1.10,2013-11-02 09:22:00,
2013-11-02 05:37:00,66.7,61.0,29.72,West,260,2.0,3.0,82,0.14,,,0.63,weatherlink.com 1.10,2013-11-02 09:37:00,
2013-11-02 05:52:00,66.9,61.0,29.72,West,261,0.0,7.0,82,0.16,,,0.67,weatherlink.com 1.10,2013-11-02 09:52:00,
2013-11-02 06:07:00,67.0,61.0,29.71,West,261,0.0,2.0,82,0.10,,,0.68,weatherlink.com 1.10,2013-11-02 10:07:00,
2013-11-02 06:22:00,66.9,61.0,29.71,West,261,0.0,4.0,82,0.08,,,0.69,weatherlink.com 1.10,2013-11-02 10:22:00,
2013-11-02 06:37:00,66.7,61.0,29.72,WSW,254,0.0,4.0,82,0.06,,,0.69,weatherlink.com 1.10,2013-11-02 10:37:00,
2013-11-02 06:52:00,66.7,61.0,29.71,WSW,254,0.0,2.0,82,0.03,,,0.70,weatherlink.com 1.10,2013-11-02 10:52:00,
2013-11-02 07:07:00,66.6,61.0,29.72,WSW,254,2.0,3.0,82,0.02,,,0.70,weatherlink.com 1.10,2013-11-02 11:07:00,
2013-11-02 07:22:00,66.5,61.0,29.72,WSW,254,0.0,4.0,82,0.01,,,0.70,weatherlink.com 1.10,2013-11-02 11:22:00,
2013-11-02 07:37:00,66.4,61.0,29.72,WSW,256,0.0,2.0,82,0.01,,,0.70,weatherlink.com 1.10,2013-11-02 11:37:00,
2013-11-02 07:52:00,66.3,61.0,29.71,WSW,255,0.0,3.0,82,0.00,,,0.70,weatherlink.com 1.10,2013-11-02 11:52:00,
2013-11-02 08:07:00,66.0,60.0,29.71,WNW,290,3.0,4.0,82,0.00,,,0.70,weatherlink.com 1.10,2013-11-02 12:07:00,
2013-11-02 08:22:00,65.7,60.0,29.73,SW,236,2.0,6.0,82,0.00,,,0.70,weatherlink.com 1.10,2013-11-02 12:22:00,
2013-11-02 08:37:00,65.5,60.0,29.75,WNW,287,3.0,8.0,82,0.00,,,0.70,weatherlink.com 1.10,2013-11-02 12:37:00,
2013-11-02 08:52:00,64.4,59.0,29.74,NW,305,3.0,7.0,82,0.00,,,0.70,weatherlink.com 1.10,2013-11-02 12:52:00,
2013-11-02 09:07:00,63.2,58.0,29.74,WNW,294,2.0,5.0,82,0.00,,,0.70,weatherlink.com 1.10,2013-11-02 13:07:00,
2013-11-02 09:22:00,62.9,57.0,29.76,West,277,0.0,5.0,82,0.00,,,0.70,weatherlink.com 1.10,2013-11-02 13:22:00,
2013-11-02 09:37:00,62.6,57.0,29.75,WNW,296,3.0,4.0,82,0.00,,,0.70,weatherlink.com 1.10,2013-11-02 13:37:00,
2013-11-02 09:52:00,62.6,57.0,29.76,WNW,296,3.0,6.0,82,0.00,,,0.70,weatherlink.com 1.10,2013-11-02 13:52:00,
2013-11-02 10:07:00,62.8,57.0,29.77,WNW,292,3.0,6.0,82,0.00,,,0.70,weatherlink.com 1.10,2013-11-02 14:07:00,
2013-11-02 10:22:00,62.8,57.0,29.77,WNW,292,2.0,4.0,82,0.00,,,0.70,weatherlink.com 1.10,2013-11-02 14:22:00,
2013-11-02 10:37:00,62.6,57.0,29.78,WNW,292,2.0,4.0,82,0.00,,,0.70,weatherlink.com 1.10,2013-11-02 14:37:00,
2013-11-02 10:52:00,62.7,57.0,29.77,NW,315,3.0,6.0,82,0.00,,,0.70,weatherlink.com 1.10,2013-11-02 14:52:00,
2013-11-02 11:07:00,62.9,57.0,29.77,West,273,0.0,4.0,82,0.00,,,0.70,weatherlink.com 1.10,2013-11-02 15:07:00,
2013-11-02 11:22:00,63.0,57.0,29.77,West,273,1.0,5.0,82,0.00,,,0.70,weatherlink.com 1.10,2013-11-02 15:22:00,
2013-11-02 11:37:00,63.0,57.0,29.76,West,273,0.0,2.0,82,0.00,,,0.70,weatherlink.com 1.10,2013-11-02 15:37:00,
2013-11-02 11:52:00,63.1,58.0,29.77,West,273,0.0,3.0,82,0.00,,,0.70,weatherlink.com 1.10,2013-11-02 15:52:00,
2013-11-02 12:07:00,63.4,58.0,29.77,West,273,0.0,0.0,82,0.00,,,0.70,weatherlink.com 1.10,2013-11-02 16:07:00,
2013-11-02 12:22:00,63.8,58.0,29.76,West,273,0.0,3.0,82,0.00,,,0.70,weatherlink.com 1.10,2013-11-02 16:22:00,
2013-11-02 12:37:00,64.2,59.0,29.76,West,273,4.0,4.0,82,0.00,,,0.70,weatherlink.com 1.10,2013-11-02 16:37:00,
2013-11-02 12:52:00,63.9,58.0,29.76,West,273,0.0,4.0,82,0.00,,,0.70,weatherlink.com 1.10,2013-11-02 16:52:00,
2013-11-02 13:07:00,64.6,59.0,29.75,West,275,1.0,5.0,81,0.00,,,0.70,weatherlink.com 1.10,2013-11-02 17:07:00,
2013-11-02 13:22:00,64.0,59.0,29.74,NNW,340,4.0,5.0,83,0.00,,,0.70,weatherlink.com 1.10,2013-11-02 17:22:00,
2013-11-02 13:37:00,64.7,60.0,29.74,North,5,0.0,4.0,84,0.00,,,0.70,weatherlink.com 1.10,2013-11-02 17:37:00,
2013-11-02 13:52:00,65.0,60.0,29.73,NNW,341,0.0,5.0,84,0.00,,,0.70,weatherlink.com 1.10,2013-11-02 17:52:00,
2013-11-02 14:07:00,65.3,60.0,29.74,North,5,3.0,6.0,83,0.00,,,0.70,weatherlink.com 1.10,2013-11-02 18:07:00,
2013-11-02 14:22:00,65.8,60.0,29.73,NNW,336,3.0,5.0,82,0.00,,,0.70,weatherlink.com 1.10,2013-11-02 18:22:00,
2013-11-02 14:37:00,66.2,60.0,29.73,NW,325,0.0,4.0,81,0.00,,,0.70,weatherlink.com 1.10,2013-11-02 18:37:00,
2013-11-02 14:52:00,66.3,60.0,29.73,NNW,327,0.0,4.0,80,0.00,,,0.70,weatherlink.com 1.10,2013-11-02 18:52:00,
2013-11-02 15:07:00,66.6,61.0,29.73,NNW,327,0.0,3.0,81,0.00,,,0.70,weatherlink.com 1.10,2013-11-02 19:07:00,
2013-11-02 15:22:00,66.9,62.0,29.73,NNW,327,0.0,2.0,83,0.00,,,0.70,weatherlink.com 1.10,2013-11-02 19:22:00,
2013-11-02 15:37:00,67.0,61.0,29.73,NNW,327,0.0,2.0,81,0.00,,,0.70,weatherlink.com 1.10,2013-11-02 19:37:00,
2013-11-02 15:53:00,67.1,61.0,29.73,NNW,327,3.0,4.0,80,0.00,,,0.70,weatherlink.com 1.10,2013-11-02 19:53:00,
2013-11-02 16:08:00,67.0,60.0,29.73,NNW,327,0.0,3.0,77,0.00,,,0.70,weatherlink.com 1.10,2013-11-02 20:08:00,
2013-11-02 16:23:00,66.8,60.0,29.72,NNW,327,0.0,3.0,79,0.00,,,0.70,weatherlink.com 1.10,2013-11-02 20:23:00,
2013-11-02 16:38:00,66.5,61.0,29.73,NNW,327,0.0,0.0,82,0.00,,,0.70,weatherlink.com 1.10,2013-11-02 20:38:00,
2013-11-02 16:53:00,65.7,60.0,29.74,NNW,327,0.0,0.0,83,0.00,,,0.70,weatherlink.com 1.10,2013-11-02 20:53:00,
2013-11-02 17:08:00,65.0,60.0,29.75,NNW,327,0.0,0.0,83,0.00,,,0.70,weatherlink.com 1.10,2013-11-02 21:08:00,
2013-11-02 17:23:00,64.4,59.0,29.76,NNW,327,0.0,2.0,82,0.00,,,0.70,weatherlink.com 1.10,2013-11-02 21:23:00,
2013-11-02 17:38:00,64.4,60.0,29.77,NNW,327,0.0,1.0,84,0.00,,,0.70,weatherlink.com 1.10,2013-11-02 21:38:00,
2013-11-02 17:53:00,64.1,59.0,29.77,NNW,327,0.0,0.0,83,0.00,,,0.70,weatherlink.com 1.10,2013-11-02 21:53:00,
2013-11-02 18:08:00,63.7,59.0,29.77,NNW,327,0.0,0.0,83,0.00,,,0.70,weatherlink.com 1.10,2013-11-02 22:08:00,
2013-11-02 18:23:00,63.6,59.0,29.77,NNW,327,0.0,0.0,84,0.00,,,0.70,weatherlink.com 1.10,2013-11-02 22:23:00,
2013-11-02 18:38:00,63.6,59.0,29.77,NNW,327,0.0,0.0,85,0.00,,,0.70,weatherlink.com 1.10,2013-11-02 22:38:00,
2013-11-02 18:53:00,63.2,59.0,29.78,NNW,327,0.0,0.0,85,0.00,,,0.70,weatherlink.com 1.10,2013-11-02 22:53:00,
2013-11-02 19:08:00,62.7,58.0,29.78,NNW,327,0.0,0.0,85,0.00,,,0.70,weatherlink.com 1.10,2013-11-02 23:08:00,
2013-11-02 19:23:00,62.5,58.0,29.79,NNW,327,0.0,1.0,85,0.00,,,0.70,weatherlink.com 1.10,2013-11-02 23:23:00,
2013-11-02 19:38:00,62.2,58.0,29.79,NNW,327,0.0,0.0,85,0.00,,,0.70,weatherlink.com 1.10,2013-11-02 23:38:00,
2013-11-02 19:53:00,61.9,57.0,29.81,NNW,327,0.0,2.0,85,0.00,,,0.70,weatherlink.com 1.10,2013-11-02 23:53:00,
2013-11-02 20:08:00,61.7,57.0,29.82,NNW,327,0.0,0.0,85,0.00,,,0.70,weatherlink.com 1.10,2013-11-03 00:08:00,
2013-11-02 20:23:00,61.3,57.0,29.82,NNW,327,0.0,0.0,85,0.00,,,0.70,weatherlink.com 1.10,2013-11-03 00:23:00,
2013-11-02 20:38:00,61.2,56.0,29.82,NNW,327,0.0,2.0,84,0.00,,,0.70,weatherlink.com 1.10,2013-11-03 00:38:00,
2013-11-02 20:53:00,61.3,57.0,29.83,NNW,327,0.0,0.0,84,0.00,,,0.70,weatherlink.com 1.10,2013-11-03 00:53:00,
2013-11-02 21:08:00,61.0,56.0,29.83,NNW,327,1.0,4.0,84,0.00,,,0.70,weatherlink.com 1.10,2013-11-03 01:08:00,
2013-11-02 21:23:00,60.8,56.0,29.84,NNW,327,0.0,2.0,84,0.00,,,0.70,weatherlink.com 1.10,2013-11-03 01:23:00,
2013-11-02 21:38:00,60.7,56.0,29.84,NNW,327,0.0,1.0,84,0.00,,,0.70,weatherlink.com 1.10,2013-11-03 01:38:00,
2013-11-02 21:53:00,60.7,56.0,29.85,NNW,327,0.0,0.0,84,0.00,,,0.70,weatherlink.com 1.10,2013-11-03 01:53:00,
2013-11-02 22:08:00,60.7,56.0,29.85,NNW,327,0.0,3.0,84,0.00,,,0.70,weatherlink.com 1.10,2013-11-03 02:08:00,
2013-11-02 22:23:00,60.8,56.0,29.86,NNW,327,0.0,1.0,83,0.00,,,0.70,weatherlink.com 1.10,2013-11-03 02:23:00,
2013-11-02 22:38:00,60.7,56.0,29.86,NW,320,0.0,4.0,83,0.00,,,0.70,weatherlink.com 1.10,2013-11-03 02:38:00,
2013-11-02 22:53:00,61.1,56.0,29.87,WSW,251,2.0,5.0,83,0.00,,,0.70,weatherlink.com 1.10,2013-11-03 02:53:00,
2013-11-02 23:08:00,61.1,56.0,29.87,West,266,3.0,5.0,83,0.00,,,0.70,weatherlink.com 1.10,2013-11-03 03:08:00,
2013-11-02 23:23:00,60.1,55.0,29.88,West,274,2.0,6.0,84,0.00,,,0.70,weatherlink.com 1.10,2013-11-03 03:23:00,
2013-11-02 23:38:00,59.9,55.0,29.88,West,275,3.0,5.0,85,0.00,,,0.70,weatherlink.com 1.10,2013-11-03 03:38:00,
2013-11-02 23:53:00,59.4,55.0,29.89,West,275,2.0,4.0,85,0.00,,,0.70,weatherlink.com 1.10,2013-11-03 03:53:00,